Time;durP1;ratioP1;P1;durP2;ratioP2;P2;SDS_P1;SDS_P2;PMS_P1;PMS_P2;Temp;Humidity;BMP_temperature;BMP_pressure;BME280_temperature;BME280_humidity;BME280_pressure;Samples;Min_cycle;Max_cycle;Signal;HPM_P1;HPM_P2
2022/08/25 00:00:20;;;;;;;0.50;0.50;;;24.40;61.90;;;;;;6274922;22;20004;-74
2022/08/25 00:02:46;;;;;;;0.60;0.60;;;24.30;61.70;;;;;;6247148;22;20047;-74
2022/08/25 00:05:12;;;;;;;0.80;0.60;;;24.30;61.70;;;;;;6274808;22;20003;-74
2022/08/25 00:07:38;;;;;;;0.75;0.75;;;24.30;61.50;;;;;;6274957;22;20000;-74
2022/08/25 00:10:05;;;;;;;0.70;0.70;;;24.40;61.50;;;;;;6247360;22;20031;-74
2022/08/25 00:12:31;;;;;;;0.70;0.70;;;24.40;61.50;;;;;;6274734;22;19999;-73
2022/08/25 00:14:57;;;;;;;0.70;0.70;;;24.30;61.40;;;;;;6245985;22;20011;-74
2022/08/25 00:17:23;;;;;;;0.70;0.70;;;24.30;61.50;;;;;;6274400;22;20000;-73
2022/08/25 00:19:50;;;;;;;0.73;0.73;;;24.30;61.40;;;;;;6274526;22;20003;-73
2022/08/25 00:22:16;;;;;;;0.60;0.60;;;24.30;61.40;;;;;;6248682;22;20008;-73
2022/08/25 00:24:42;;;;;;;1.65;0.80;;;24.30;61.40;;;;;;6274669;22;20448;-73
2022/08/25 00:27:07;;;;;;;0.70;0.70;;;24.20;61.30;;;;;;6274833;22;20061;-73
2022/08/25 00:29:33;;;;;;;0.60;0.60;;;24.20;61.30;;;;;;6275242;22;20075;-74
2022/08/25 00:31:59;;;;;;;0.73;0.70;;;24.20;61.30;;;;;;6275091;22;20006;-74
2022/08/25 00:34:32;;;;;;;0.52;0.52;;;24.10;61.40;;;;;;6274654;22;20077;-73
2022/08/25 00:36:59;;;;;;;0.80;0.80;;;24.10;61.50;;;;;;6248541;22;20332;-73
2022/08/25 00:39:26;;;;;;;1.13;0.70;;;24.00;61.50;;;;;;6274449;22;20038;-73
2022/08/25 00:41:55;;;;;;;0.40;0.40;;;24.00;61.60;;;;;;6274686;22;20003;-73
2022/08/25 00:44:22;;;;;;;0.80;0.70;;;24.00;61.70;;;;;;6274399;22;20370;-73
2022/08/25 00:46:51;;;;;;;0.70;0.70;;;24.00;61.70;;;;;;6275099;22;20286;-73
2022/08/25 00:49:23;;;;;;;0.70;0.70;;;23.80;61.70;;;;;;6274983;22;20082;-73
2022/08/25 00:52:00;;;;;;;0.90;0.70;;;23.80;61.80;;;;;;6274332;22;20071;-73
2022/08/25 00:54:31;;;;;;;0.80;0.80;;;23.70;62.00;;;;;;6274678;22;20012;-73
2022/08/25 00:56:58;;;;;;;0.50;0.50;;;23.70;62.00;;;;;;6274672;22;19999;-73
2022/08/25 00:59:26;;;;;;;0.60;0.60;;;23.60;61.90;;;;;;6247733;22;20011;-73
2022/08/25 01:01:53;;;;;;;0.80;0.80;;;23.60;62.00;;;;;;6274252;22;19999;-73
2022/08/25 01:04:18;;;;;;;0.60;0.60;;;23.50;62.20;;;;;;6274756;22;19996;-74
2022/08/25 01:06:46;;;;;;;0.70;0.50;;;23.50;62.20;;;;;;6274523;22;19995;-73
2022/08/25 01:09:13;;;;;;;1.70;0.63;;;23.40;62.20;;;;;;6274817;22;20015;-73
2022/08/25 01:11:41;;;;;;;0.68;0.68;;;23.40;62.30;;;;;;6274702;22;20096;-73
2022/08/25 01:14:08;;;;;;;0.65;0.65;;;23.40;62.30;;;;;;6274747;22;20030;-74
2022/08/25 01:16:36;;;;;;;0.70;0.70;;;23.40;62.30;;;;;;6274489;22;20003;-73
2022/08/25 01:19:08;;;;;;;0.60;0.60;;;23.30;62.30;;;;;;6270940;22;20424;-74
2022/08/25 01:21:45;;;;;;;0.70;0.70;;;23.30;62.30;;;;;;6274234;22;19999;-73
2022/08/25 01:24:20;;;;;;;1.25;0.70;;;23.20;62.40;;;;;;6274555;22;20000;-74
2022/08/25 01:26:45;;;;;;;0.63;0.63;;;23.20;62.40;;;;;;6274150;22;20003;-73
2022/08/25 01:29:26;;;;;;;0.60;0.60;;;23.20;62.40;;;;;;6273883;22;20027;-73
2022/08/25 01:31:56;;;;;;;0.60;0.60;;;23.10;63.00;;;;;;6273958;22;20443;-73
2022/08/25 01:34:25;;;;;;;0.70;0.70;;;23.10;62.40;;;;;;6245996;22;20011;-73
2022/08/25 01:36:52;;;;;;;0.75;0.75;;;23.00;62.40;;;;;;6274396;22;20440;-74
2022/08/25 01:39:18;;;;;;;0.60;0.60;;;23.00;62.40;;;;;;6274773;22;20011;-74
2022/08/25 01:42:21;;;;;;;0.60;0.60;;;23.00;62.50;;;;;;6275571;22;20000;-74
2022/08/25 01:44:47;;;;;;;0.60;0.60;;;22.90;62.50;;;;;;6275118;22;20456;-73
2022/08/25 01:47:14;;;;;;;0.77;0.77;;;22.90;62.50;;;;;;6275382;22;20000;-73
2022/08/25 01:49:40;;;;;;;0.50;0.50;;;22.90;62.50;;;;;;6275868;22;20436;-73
2022/08/25 01:52:14;;;;;;;0.70;0.70;;;22.90;62.40;;;;;;6248294;22;20054;-73
2022/08/25 01:54:40;;;;;;;0.90;0.50;;;22.80;62.40;;;;;;6275320;22;20336;-73
2022/08/25 01:57:06;;;;;;;0.60;0.60;;;22.80;62.30;;;;;;6248457;22;20070;-73
2022/08/25 01:59:32;;;;;;;0.60;0.60;;;22.90;62.30;;;;;;6275127;22;20016;-73
2022/08/25 02:01:57;;;;;;;0.50;0.50;;;22.80;62.30;;;;;;6275572;22;20026;-73
2022/08/25 02:04:23;;;;;;;0.60;0.60;;;22.80;62.30;;;;;;6275362;22;20006;-73
2022/08/25 02:06:49;;;;;;;0.63;0.60;;;22.80;62.30;;;;;;6275484;22;20000;-73
2022/08/25 02:09:16;;;;;;;0.77;0.70;;;22.80;62.30;;;;;;6272163;22;20008;-73
2022/08/25 02:11:44;;;;;;;0.40;0.40;;;22.70;62.10;;;;;;6274795;22;20431;-73
2022/08/25 02:14:12;;;;;;;0.70;0.70;;;22.80;62.20;;;;;;6275264;22;20010;-73
2022/08/25 02:16:40;;;;;;;1.27;0.60;;;22.70;62.10;;;;;;6275281;22;20057;-73
2022/08/25 02:19:09;;;;;;;0.60;0.60;;;22.70;62.10;;;;;;6275000;22;20015;-73
2022/08/25 02:21:35;;;;;;;0.55;0.50;;;22.70;62.10;;;;;;6247927;22;20499;-73
2022/08/25 02:24:02;;;;;;;0.60;0.60;;;22.60;62.00;;;;;;6248607;22;20431;-73
2022/08/25 02:26:28;;;;;;;0.73;0.73;;;22.70;62.10;;;;;;6248790;22;20541;-73
2022/08/25 02:28:54;;;;;;;0.40;0.40;;;22.70;62.10;;;;;;6275486;22;20010;-73
2022/08/25 02:31:23;;;;;;;0.60;0.60;;;22.60;62.00;;;;;;6272296;22;20036;-73
2022/08/25 02:33:50;;;;;;;0.60;0.60;;;22.70;62.10;;;;;;6275545;22;20273;-73
2022/08/25 02:36:16;;;;;;;0.50;0.50;;;22.70;62.00;;;;;;6248275;22;20081;-73
2022/08/25 02:38:42;;;;;;;0.70;0.70;;;22.70;62.60;;;;;;6271716;22;20008;-73
2022/08/25 02:41:14;;;;;;;0.63;0.63;;;22.70;61.90;;;;;;6275090;22;20011;-73
2022/08/25 02:43:41;;;;;;;0.60;0.60;;;22.70;61.80;;;;;;6248276;22;19995;-73
2022/08/25 02:46:08;;;;;;;0.75;0.75;;;22.60;61.70;;;;;;6275320;22;20396;-73
2022/08/25 02:48:34;;;;;;;0.60;0.60;;;22.70;61.80;;;;;;6275519;22;20046;-73
2022/08/25 02:51:01;;;;;;;0.60;0.60;;;22.70;61.80;;;;;;6222660;22;20007;-73
2022/08/25 02:53:27;;;;;;;0.70;0.70;;;22.60;61.70;;;;;;6274894;22;20057;-73
2022/08/25 02:55:54;;;;;;;0.60;0.60;;;22.60;61.80;;;;;;6247877;22;20000;-73
2022/08/25 02:58:20;;;;;;;0.70;0.70;;;22.50;61.80;;;;;;6274941;22;20103;-73
2022/08/25 03:00:47;;;;;;;1.20;0.63;;;22.60;61.80;;;;;;6275537;22;20071;-73
2022/08/25 03:03:16;;;;;;;0.82;0.60;;;22.50;61.80;;;;;;6275719;22;20000;-73
2022/08/25 03:05:41;;;;;;;0.57;0.57;;;22.50;61.90;;;;;;6222979;22;20327;-73
2022/08/25 03:08:08;;;;;;;0.60;0.60;;;22.40;61.90;;;;;;6248724;22;20083;-73
2022/08/25 03:10:35;;;;;;;0.98;0.77;;;22.40;62.10;;;;;;6274903;22;20000;-73
2022/08/25 03:13:01;;;;;;;0.70;0.70;;;22.30;62.10;;;;;;6275447;22;20305;-73
2022/08/25 03:15:27;;;;;;;0.52;0.52;;;22.30;62.20;;;;;;6248046;22;20034;-73
2022/08/25 03:17:54;;;;;;;0.93;0.70;;;22.30;62.20;;;;;;6274983;22;20007;-73
2022/08/25 03:20:22;;;;;;;0.93;0.60;;;22.20;62.20;;;;;;6275303;22;20004;-73
2022/08/25 03:22:48;;;;;;;0.60;0.60;;;22.20;62.20;;;;;;6248314;22;20074;-73
2022/08/25 03:27:53;;;;;;;0.68;0.68;;;22.20;62.30;;;;;;6274737;22;20012;-73
2022/08/25 03:30:19;;;;;;;1.02;0.60;;;22.10;62.30;;;;;;6275396;22;20083;-73
2022/08/25 03:32:45;;;;;;;0.50;0.50;;;22.10;62.30;;;;;;6274895;22;20000;-73
2022/08/25 03:35:11;;;;;;;0.50;0.50;;;22.10;62.40;;;;;;6247679;22;19999;-73
2022/08/25 03:37:37;;;;;;;0.60;0.60;;;22.10;62.40;;;;;;6275272;22;20008;-73
2022/08/25 03:40:04;;;;;;;0.82;0.63;;;22.00;62.30;;;;;;6275169;22;20077;-73
2022/08/25 03:42:30;;;;;;;0.60;0.60;;;22.10;62.40;;;;;;6274871;22;20003;-73
2022/08/25 03:44:56;;;;;;;0.85;0.50;;;22.00;62.40;;;;;;6274707;22;20000;-73
2022/08/25 03:47:25;;;;;;;0.50;0.50;;;21.90;62.40;;;;;;6274805;22;19996;-73
2022/08/25 03:49:51;;;;;;;0.88;0.70;;;21.90;62.40;;;;;;6275131;22;20502;-72
2022/08/25 03:52:17;;;;;;;0.60;0.60;;;21.90;62.50;;;;;;6274893;22;19996;-72
2022/08/25 03:54:43;;;;;;;0.82;0.70;;;21.80;62.40;;;;;;6248152;22;20038;-73
2022/08/25 03:57:10;;;;;;;1.20;0.77;;;21.80;62.50;;;;;;6274940;22;20002;-73
2022/08/25 03:59:37;;;;;;;0.80;0.80;;;21.80;63.10;;;;;;6274623;22;20007;-73
2022/08/25 04:02:04;;;;;;;0.93;0.70;;;21.80;62.50;;;;;;6274241;22;20082;-73
2022/08/25 04:04:30;;;;;;;0.85;0.77;;;21.80;62.50;;;;;;6247959;22;20026;-73
2022/08/25 04:06:57;;;;;;;1.13;0.50;;;21.80;62.60;;;;;;6275766;22;20352;-73
2022/08/25 04:09:23;;;;;;;0.70;0.70;;;21.80;62.50;;;;;;6247134;22;20014;-73
2022/08/25 04:11:49;;;;;;;0.95;0.80;;;21.70;62.40;;;;;;6247648;22;20007;-73
2022/08/25 04:14:15;;;;;;;1.00;0.90;;;21.70;62.50;;;;;;6275126;22;20082;-73
2022/08/25 04:16:41;;;;;;;0.52;0.50;;;21.70;62.40;;;;;;6274848;22;20023;-73
2022/08/25 04:19:08;;;;;;;0.60;0.60;;;21.70;62.40;;;;;;6222742;22;20090;-73
2022/08/25 04:21:36;;;;;;;0.98;0.65;;;21.70;62.40;;;;;;6274808;22;20003;-73
2022/08/25 04:24:02;;;;;;;1.10;0.80;;;21.70;62.40;;;;;;6274922;22;20004;-73
2022/08/25 04:26:31;;;;;;;0.88;0.73;;;21.60;62.40;;;;;;6274971;22;19996;-73
2022/08/25 04:28:59;;;;;;;0.90;0.80;;;21.60;62.40;;;;;;6274847;22;20042;-73
2022/08/25 04:31:27;;;;;;;0.80;0.80;;;21.70;62.50;;;;;;6247953;22;20031;-73
2022/08/25 04:33:52;;;;;;;0.80;0.80;;;21.50;62.40;;;;;;6248363;22;20000;-73
2022/08/25 04:36:20;;;;;;;0.70;0.70;;;21.60;62.50;;;;;;6222830;22;20003;-73
2022/08/25 04:38:47;;;;;;;0.75;0.68;;;21.50;62.50;;;;;;6247754;22;20483;-73
2022/08/25 04:41:15;;;;;;;1.20;0.80;;;21.50;62.50;;;;;;6222811;22;20038;-73
2022/08/25 04:43:43;;;;;;;0.80;0.70;;;21.50;62.50;;;;;;6275104;22;20328;-73
2022/08/25 04:46:11;;;;;;;0.80;0.80;;;21.50;62.50;;;;;;6275559;22;20000;-73
2022/08/25 04:48:38;;;;;;;0.70;0.70;;;21.50;62.50;;;;;;6248442;22;20004;-73
2022/08/25 04:51:07;;;;;;;1.33;0.70;;;21.40;62.50;;;;;;6247752;22;20003;-73
2022/08/25 04:53:33;;;;;;;0.82;0.77;;;21.40;62.60;;;;;;6275570;22;20046;-73
2022/08/25 04:55:59;;;;;;;0.60;0.60;;;21.30;62.60;;;;;;6275310;22;20470;-73
2022/08/25 04:58:26;;;;;;;0.73;0.70;;;21.40;62.70;;;;;;6275384;22;20297;-73
2022/08/25 05:00:52;;;;;;;0.60;0.60;;;21.40;62.70;;;;;;6275071;22;20054;-73
2022/08/25 05:03:18;;;;;;;1.48;0.70;;;21.30;62.70;;;;;;6248668;22;20043;-73
2022/08/25 05:05:43;;;;;;;1.00;0.90;;;21.30;62.80;;;;;;6274514;22;20014;-73
2022/08/25 05:08:09;;;;;;;0.70;0.70;;;21.40;62.90;;;;;;6274639;22;20003;-73
2022/08/25 05:10:39;;;;;;;0.60;0.60;;;21.30;62.90;;;;;;6275495;22;20014;-73
2022/08/25 05:13:05;;;;;;;1.30;0.82;;;21.20;63.60;;;;;;6274776;22;20454;-73
2022/08/25 05:18:10;;;;;;;1.05;0.80;;;21.20;63.00;;;;;;6274591;22;20141;-73
2022/08/25 05:20:36;;;;;;;0.75;0.73;;;21.20;63.10;;;;;;6274626;22;20000;-73
2022/08/25 05:23:03;;;;;;;0.70;0.70;;;21.20;63.10;;;;;;6274833;22;20000;-73
2022/08/25 05:25:29;;;;;;;0.90;0.70;;;21.20;63.10;;;;;;6273258;22;20439;-73
2022/08/25 05:27:55;;;;;;;0.75;0.70;;;21.20;63.10;;;;;;6247569;22;20007;-73
2022/08/25 05:30:21;;;;;;;1.02;0.90;;;21.10;63.00;;;;;;6248591;22;20057;-73
2022/08/25 05:32:47;;;;;;;0.75;0.75;;;21.10;62.90;;;;;;6247725;22;20011;-74
2022/08/25 05:35:12;;;;;;;0.63;0.63;;;21.10;62.90;;;;;;6271335;22;20383;-73
2022/08/25 05:37:38;;;;;;;1.90;0.90;;;21.10;62.90;;;;;;6247214;22;20366;-74
2022/08/25 05:40:07;;;;;;;0.88;0.88;;;21.20;62.90;;;;;;6274313;22;20443;-74
2022/08/25 05:42:33;;;;;;;0.60;0.60;;;21.20;62.80;;;;;;6274564;22;20008;-74
2022/08/25 05:44:59;;;;;;;0.63;0.63;;;21.20;62.80;;;;;;6274422;22;20024;-73
2022/08/25 05:47:25;;;;;;;0.70;0.65;;;21.20;62.70;;;;;;6274682;22;20050;-74
2022/08/25 05:49:50;;;;;;;0.57;0.57;;;21.20;62.70;;;;;;6274583;22;20004;-74
2022/08/25 05:52:16;;;;;;;0.93;0.77;;;21.30;62.70;;;;;;6220459;22;20000;-74
2022/08/25 05:54:42;;;;;;;0.85;0.70;;;21.30;62.70;;;;;;6274183;22;20008;-74
2022/08/25 05:57:08;;;;;;;0.65;0.65;;;21.30;62.70;;;;;;6275132;22;20056;-74
2022/08/25 05:59:34;;;;;;;0.98;0.70;;;21.30;62.70;;;;;;6274389;22;20451;-73
2022/08/25 06:04:43;;;;;;;0.60;0.60;;;21.30;62.60;;;;;;6274423;22;20034;-73
2022/08/25 06:07:09;;;;;;;1.08;0.90;;;21.30;62.50;;;;;;6274110;22;20000;-74
2022/08/25 06:09:38;;;;;;;0.60;0.60;;;21.40;62.60;;;;;;6274116;22;20459;-74
2022/08/25 06:12:05;;;;;;;1.00;0.90;;;21.30;62.60;;;;;;6273817;22;20026;-73
2022/08/25 06:14:30;;;;;;;0.63;0.60;;;21.40;62.60;;;;;;6246952;22;20004;-73
2022/08/25 06:16:56;;;;;;;0.60;0.60;;;21.40;62.50;;;;;;6274090;22;20004;-74
2022/08/25 06:19:22;;;;;;;0.70;0.70;;;21.40;62.50;;;;;;6274084;22;20011;-74
2022/08/25 06:21:51;;;;;;;0.60;0.60;;;21.40;62.50;;;;;;6274245;22;20081;-74
2022/08/25 06:24:18;;;;;;;1.25;0.80;;;21.50;62.50;;;;;;6274317;22;20000;-74
2022/08/25 06:26:44;;;;;;;0.63;0.63;;;21.50;62.40;;;;;;6275368;22;19996;-74
2022/08/25 06:29:12;;;;;;;0.52;0.52;;;21.50;62.30;;;;;;6275409;22;20385;-74
2022/08/25 06:31:38;;;;;;;0.85;0.80;;;21.60;63.00;;;;;;6275908;22;20366;-74
2022/08/25 06:34:05;;;;;;;0.60;0.60;;;21.60;62.40;;;;;;6275433;22;20027;-74
2022/08/25 06:36:31;;;;;;;0.93;0.90;;;21.60;62.30;;;;;;6275422;22;20026;-74
2022/08/25 06:38:57;;;;;;;0.60;0.60;;;21.70;62.20;;;;;;6249108;22;20432;-74
2022/08/25 06:41:24;;;;;;;0.82;0.60;;;21.60;62.10;;;;;;6275457;22;20012;-74
2022/08/25 06:43:49;;;;;;;0.95;0.90;;;21.70;62.10;;;;;;6275958;22;20004;-74
2022/08/25 06:46:20;;;;;;;0.80;0.80;;;21.80;62.00;;;;;;6275761;22;20073;-74
2022/08/25 06:48:46;;;;;;;1.00;0.70;;;21.80;61.80;;;;;;6275637;22;20504;-74
2022/08/25 06:51:14;;;;;;;0.82;0.70;;;21.90;61.80;;;;;;6275439;22;20083;-74
2022/08/25 06:53:41;;;;;;;0.60;0.60;;;21.90;61.60;;;;;;6248448;22;20010;-74
2022/08/25 06:56:07;;;;;;;1.20;0.90;;;22.00;61.60;;;;;;6276148;22;19999;-74
2022/08/25 06:58:33;;;;;;;0.95;0.90;;;22.00;61.50;;;;;;6248782;22;20327;-74
2022/08/25 07:01:09;;;;;;;1.17;0.90;;;22.10;61.50;;;;;;6275753;22;20004;-74
2022/08/25 07:03:34;;;;;;;0.63;0.63;;;22.20;61.40;;;;;;6275904;22;20316;-74
2022/08/25 07:06:00;;;;;;;0.68;0.68;;;22.20;61.20;;;;;;6249010;22;19996;-74
2022/08/25 07:08:26;;;;;;;0.57;0.57;;;22.30;61.10;;;;;;6276070;22;20011;-74
2022/08/25 07:10:52;;;;;;;0.70;0.70;;;22.30;61.10;;;;;;6275742;22;20069;-74
2022/08/25 07:13:18;;;;;;;0.60;0.60;;;22.40;61.00;;;;;;6222944;22;20424;-74
2022/08/25 07:15:43;;;;;;;1.63;0.88;;;22.50;61.00;;;;;;6275218;22;20420;-74
2022/08/25 07:18:10;;;;;;;0.70;0.70;;;22.50;60.90;;;;;;6275261;22;20417;-74
2022/08/25 07:20:38;;;;;;;0.70;0.60;;;22.60;60.80;;;;;;6275126;22;20003;-74
2022/08/25 07:23:05;;;;;;;0.50;0.50;;;22.60;60.70;;;;;;6275818;22;20050;-74
2022/08/25 07:25:32;;;;;;;0.63;0.60;;;22.60;60.70;;;;;;6275724;22;20023;-74
2022/08/25 07:27:58;;;;;;;0.70;0.60;;;22.70;60.60;;;;;;6248985;22;20008;-73
2022/08/25 07:30:24;;;;;;;0.77;0.60;;;22.80;60.60;;;;;;6248310;22;20014;-74
2022/08/25 07:32:50;;;;;;;0.80;0.50;;;22.90;60.50;;;;;;6248517;22;20008;-74
2022/08/25 07:35:16;;;;;;;0.90;0.70;;;22.90;60.40;;;;;;6275401;22;20003;-74
2022/08/25 07:37:44;;;;;;;0.70;0.70;;;23.00;60.30;;;;;;6247712;22;20324;-74
2022/08/25 07:40:14;;;;;;;0.60;0.60;;;23.10;60.20;;;;;;6275228;22;20014;-74
2022/08/25 07:42:40;;;;;;;0.90;0.80;;;23.20;60.10;;;;;;6275192;22;20301;-74
2022/08/25 07:45:09;;;;;;;0.57;0.55;;;23.30;60.00;;;;;;6275117;22;20087;-74
2022/08/25 07:47:35;;;;;;;1.05;0.80;;;23.40;59.90;;;;;;6248471;22;20026;-74
2022/08/25 07:50:01;;;;;;;0.88;0.80;;;23.50;59.80;;;;;;6247814;22;20019;-74
2022/08/25 07:52:27;;;;;;;0.63;0.63;;;23.60;59.60;;;;;;6275243;22;20003;-74
2022/08/25 07:54:53;;;;;;;0.60;0.55;;;23.60;59.40;;;;;;6275208;22;20000;-74
2022/08/25 07:57:21;;;;;;;0.60;0.60;;;23.90;59.30;;;;;;6275544;22;19996;-74
2022/08/25 07:59:47;;;;;;;0.73;0.70;;;23.90;59.20;;;;;;6248212;22;20012;-74
2022/08/25 08:02:13;;;;;;;0.90;0.80;;;24.00;59.10;;;;;;6275315;22;20031;-74
2022/08/25 08:04:41;;;;;;;0.60;0.60;;;24.00;58.90;;;;;;6248865;22;20011;-74
2022/08/25 08:07:06;;;;;;;0.82;0.82;;;24.10;58.80;;;;;;6272638;22;19996;-74
2022/08/25 08:09:32;;;;;;;0.80;0.80;;;24.30;58.80;;;;;;6181383;23;20019;-74
2022/08/25 08:11:59;;;;;;;0.60;0.60;;;24.40;58.60;;;;;;6181970;23;20461;-74
2022/08/25 08:14:25;;;;;;;0.70;0.70;;;24.40;58.50;;;;;;6182109;23;20013;-74
2022/08/25 08:16:50;;;;;;;0.70;0.70;;;24.60;58.30;;;;;;6181650;23;20338;-74
2022/08/25 08:19:16;;;;;;;0.63;0.63;;;24.80;58.10;;;;;;6181665;23;20024;-74
2022/08/25 08:21:42;;;;;;;0.60;0.60;;;25.00;57.90;;;;;;6182293;23;20005;-74
2022/08/25 08:24:08;;;;;;;0.63;0.63;;;25.10;57.70;;;;;;6156879;23;20009;-74
2022/08/25 08:26:34;;;;;;;0.60;0.60;;;25.40;57.60;;;;;;6182304;23;20092;-74
2022/08/25 08:29:00;;;;;;;0.52;0.52;;;25.50;57.30;;;;;;6156854;23;20013;-74
2022/08/25 08:31:27;;;;;;;0.60;0.60;;;25.80;57.10;;;;;;6156630;23;20021;-74
2022/08/25 08:33:54;;;;;;;0.60;0.60;;;26.00;56.80;;;;;;6181875;23;20009;-74
2022/08/25 08:36:21;;;;;;;0.68;0.50;;;26.20;56.70;;;;;;6156630;23;20413;-74
2022/08/25 08:38:48;;;;;;;0.80;0.80;;;26.40;56.50;;;;;;6182012;23;20460;-74
2022/08/25 08:44:28;;;;;;;;;;;26.70;56.10;;;;;;6275686;22;20004;-74
2022/08/25 08:47:17;;;;;;;0.68;0.68;;;27.00;56.10;;;;;;6274539;22;19899;-74
2022/08/25 08:50:09;;;;;;;0.60;0.60;;;27.20;55.80;;;;;;6274546;22;20439;-75
2022/08/25 08:52:59;;;;;;;0.80;0.80;;;27.40;55.70;;;;;;6275164;22;20011;-74
2022/08/25 08:55:31;;;;;;;0.70;0.68;;;27.60;55.60;;;;;;6247794;22;20501;-74
2022/08/25 08:58:01;;;;;;;0.40;0.40;;;27.80;55.50;;;;;;6274451;22;20480;-74
2022/08/25 09:00:27;;;;;;;1.40;0.77;;;27.90;55.30;;;;;;6274937;22;20004;-74
2022/08/25 09:03:28;;;;;;;0.88;0.60;;;28.20;55.20;;;;;;6247668;22;20079;-74
2022/08/25 09:05:58;;;;;;;0.60;0.60;;;28.30;55.00;;;;;;6274691;22;20015;-74
2022/08/25 09:08:23;;;;;;;0.60;0.60;;;28.50;55.00;;;;;;6274779;22;20029;-74
2022/08/25 09:11:12;;;;;;;0.80;0.75;;;28.60;54.80;;;;;;6275366;22;20087;-74
2022/08/25 09:14:09;;;;;;;0.57;0.57;;;28.80;54.70;;;;;;6274771;22;20324;-74
2022/08/25 09:16:58;;;;;;;0.80;0.80;;;28.90;54.70;;;;;;6251243;22;20408;-74
2022/08/25 09:19:39;;;;;;;0.82;0.80;;;28.90;54.50;;;;;;6274369;22;20011;-74
2022/08/25 09:22:29;;;;;;;0.70;0.70;;;29.10;54.60;;;;;;6249180;22;20000;-74
2022/08/25 09:25:30;;;;;;;0.70;0.70;;;29.30;54.40;;;;;;6252398;22;20355;-74
2022/08/25 09:28:29;;;;;;;0.77;0.77;;;29.40;54.30;;;;;;6274403;22;20799;-73
2022/08/25 09:31:12;;;;;;;1.25;0.90;;;29.50;54.30;;;;;;6274602;22;19996;-74
2022/08/25 09:33:38;;;;;;;0.70;0.70;;;29.60;54.30;;;;;;6274440;22;19999;-74
2022/08/25 09:36:04;;;;;;;1.27;0.60;;;29.60;54.10;;;;;;6274624;22;20030;-74
2022/08/25 09:38:30;;;;;;;0.70;0.70;;;29.70;54.00;;;;;;6246949;22;20447;-74
2022/08/25 09:40:59;;;;;;;1.45;0.98;;;29.90;54.00;;;;;;6247569;22;20420;-74
2022/08/25 09:43:35;;;;;;;0.90;0.90;;;29.80;53.90;;;;;;6247546;22;20002;-74
2022/08/25 09:46:12;;;;;;;0.70;0.70;;;29.90;53.80;;;;;;6274397;22;20004;-74
2022/08/25 09:48:47;;;;;;;1.52;0.85;;;30.00;53.90;;;;;;6248370;22;20483;-75
2022/08/25 09:51:20;;;;;;;0.80;0.80;;;30.00;53.70;;;;;;6275016;22;20027;-74
2022/08/25 09:53:53;;;;;;;0.60;0.60;;;30.10;53.60;;;;;;6274405;22;20000;-74
2022/08/25 09:56:23;;;;;;;0.60;0.60;;;30.10;53.40;;;;;;6274227;22;20061;-74
2022/08/25 09:58:50;;;;;;;0.90;0.90;;;30.10;53.40;;;;;;6274532;22;20034;-74
2022/08/25 10:01:19;;;;;;;0.70;0.70;;;30.20;53.40;;;;;;6249069;22;20003;-74
2022/08/25 10:04:02;;;;;;;0.80;0.80;;;30.20;53.30;;;;;;6275791;22;20004;-74
2022/08/25 10:06:36;;;;;;;1.27;0.90;;;30.30;53.20;;;;;;6275761;22;20000;-74
2022/08/25 10:09:06;;;;;;;0.80;0.70;;;30.40;53.20;;;;;;6275499;22;20004;-74
2022/08/25 10:11:39;;;;;;;0.80;0.65;;;30.40;53.00;;;;;;6275445;22;20023;-74
2022/08/25 10:14:35;;;;;;;1.00;0.82;;;30.50;52.80;;;;;;6247960;22;20023;-74
2022/08/25 10:17:16;;;;;;;0.70;0.70;;;30.60;52.70;;;;;;6275947;22;20061;-74
2022/08/25 10:19:42;;;;;;;0.70;0.70;;;30.60;52.70;;;;;;6270471;22;20055;-74
2022/08/25 10:22:21;;;;;;;0.70;0.70;;;30.60;52.60;;;;;;6248841;22;19996;-74
2022/08/25 10:24:48;;;;;;;0.70;0.70;;;30.60;52.50;;;;;;6275959;22;20003;-74
2022/08/25 10:27:26;;;;;;;0.90;0.90;;;30.70;52.40;;;;;;6246368;22;20313;-74
2022/08/25 10:30:28;;;;;;;0.70;0.70;;;30.70;52.30;;;;;;6250106;22;20042;-74
2022/08/25 10:33:18;;;;;;;0.60;0.60;;;30.70;52.10;;;;;;6274819;22;20035;-74
2022/08/25 10:36:06;;;;;;;0.65;0.65;;;30.70;52.00;;;;;;6275011;22;20416;-74
2022/08/25 10:38:46;;;;;;;0.80;0.80;;;30.80;51.90;;;;;;6275351;22;20412;-74
2022/08/25 10:41:33;;;;;;;0.60;0.60;;;30.70;51.70;;;;;;6248393;22;20003;-74
2022/08/25 10:47:39;;;;;;;1.27;0.70;;;30.70;51.50;;;;;;6256426;22;20015;-74
2022/08/25 10:50:22;;;;;;;0.65;0.60;;;30.70;51.50;;;;;;6274779;22;20015;-74
2022/08/25 10:53:19;;;;;;;0.60;0.60;;;30.80;51.40;;;;;;6248109;22;20331;-74
2022/08/25 10:56:03;;;;;;;0.77;0.60;;;30.70;51.10;;;;;;6255335;22;20006;-74
2022/08/25 10:59:00;;;;;;;0.70;0.70;;;30.80;51.00;;;;;;6249770;22;20011;-74
2022/08/25 11:01:59;;;;;;;0.60;0.60;;;30.80;50.90;;;;;;6252371;22;20086;-74
2022/08/25 11:04:36;;;;;;;0.63;0.63;;;30.90;50.90;;;;;;6274658;22;20007;-74
2022/08/25 11:07:14;;;;;;;0.52;0.52;;;30.90;50.70;;;;;;6275629;22;20007;-74
2022/08/25 11:09:44;;;;;;;0.88;0.88;;;30.90;50.60;;;;;;6247630;22;20097;-74
2022/08/25 11:12:19;;;;;;;0.70;0.70;;;30.90;50.50;;;;;;6275279;22;20004;-74
2022/08/25 11:14:50;;;;;;;0.57;0.57;;;31.00;50.40;;;;;;6248368;22;20008;-74
2022/08/25 11:17:23;;;;;;;0.50;0.50;;;31.00;50.20;;;;;;6275402;22;20004;-75
2022/08/25 11:19:55;;;;;;;0.55;0.55;;;31.10;50.00;;;;;;6275213;22;20018;-74
2022/08/25 11:22:32;;;;;;;0.60;0.60;;;31.10;49.90;;;;;;6275715;22;20341;-74
2022/08/25 11:25:10;;;;;;;0.60;0.60;;;31.20;49.60;;;;;;6274792;22;20438;-74
2022/08/25 11:27:44;;;;;;;0.70;0.65;;;31.30;49.50;;;;;;6274979;22;20004;-74
2022/08/25 11:30:13;;;;;;;0.43;0.43;;;31.40;49.40;;;;;;6275274;22;20012;-74
2022/08/25 11:32:43;;;;;;;0.50;0.50;;;31.50;49.30;;;;;;6274433;22;20027;-74
2022/08/25 11:35:11;;;;;;;0.60;0.60;;;31.50;49.10;;;;;;6247889;22;20023;-74
2022/08/25 11:37:56;;;;;;;0.60;0.60;;;31.60;48.90;;;;;;6274857;22;20027;-75
2022/08/25 11:40:40;;;;;;;0.60;0.60;;;31.60;48.60;;;;;;6274956;22;20086;-74
2022/08/25 11:43:40;;;;;;;0.85;0.60;;;31.70;48.50;;;;;;6274867;22;20471;-74
2022/08/25 11:46:22;;;;;;;0.60;0.60;;;31.70;48.30;;;;;;6252196;22;20015;-74
2022/08/25 11:49:26;;;;;;;0.57;0.57;;;31.90;48.30;;;;;;6275271;22;20007;-74
2022/08/25 11:51:52;;;;;;;0.50;0.50;;;32.00;48.10;;;;;;6247577;22;20364;-74
2022/08/25 11:54:41;;;;;;;0.55;0.55;;;32.10;48.10;;;;;;6275531;22;20025;-74
2022/08/25 11:57:18;;;;;;;0.63;0.63;;;32.10;47.80;;;;;;6275515;22;20010;-74
2022/08/25 12:00:01;;;;;;;0.65;0.60;;;32.10;47.80;;;;;;6275234;22;20443;-74
2022/08/25 12:02:33;;;;;;;0.43;0.43;;;32.10;47.60;;;;;;6275086;22;20022;-74
2022/08/25 12:04:59;;;;;;;0.65;0.65;;;32.10;47.60;;;;;;6274636;22;20004;-74
2022/08/25 12:07:28;;;;;;;0.85;0.68;;;32.10;47.50;;;;;;6248014;22;20027;-74
2022/08/25 12:10:19;;;;;;;0.73;0.60;;;32.20;47.30;;;;;;6275452;22;20000;-74
2022/08/25 12:12:59;;;;;;;0.68;0.68;;;32.10;47.90;;;;;;6254415;22;20018;-74
2022/08/25 12:15:47;;;;;;;0.60;0.55;;;32.10;47.20;;;;;;6247950;22;20027;-74
2022/08/25 12:18:39;;;;;;;0.57;0.57;;;32.10;47.20;;;;;;6274656;22;20015;-74
2022/08/25 12:21:11;;;;;;;0.73;0.60;;;32.10;47.20;;;;;;6253875;22;20154;-74
2022/08/25 12:23:41;;;;;;;0.50;0.50;;;32.20;47.10;;;;;;6248521;22;20008;-74
2022/08/25 12:26:24;;;;;;;0.68;0.60;;;32.20;46.90;;;;;;6271982;22;20019;-74
2022/08/25 12:29:28;;;;;;;0.52;0.45;;;32.20;46.80;;;;;;6275148;22;20003;-74
2022/08/25 12:32:14;;;;;;;0.70;0.70;;;32.20;46.70;;;;;;6275063;22;20038;-74
2022/08/25 12:35:06;;;;;;;0.70;0.70;;;32.20;46.70;;;;;;6274885;22;20493;-74
2022/08/25 12:37:31;;;;;;;0.60;0.60;;;32.10;46.50;;;;;;6247603;22;20011;-74
2022/08/25 12:40:01;;;;;;;0.50;0.50;;;32.10;46.60;;;;;;6247857;22;20459;-74
2022/08/25 12:42:33;;;;;;;0.50;0.50;;;32.10;46.70;;;;;;6274927;22;20003;-74
2022/08/25 12:45:13;;;;;;;0.70;0.70;;;32.10;46.70;;;;;;6274923;22;19999;-74
2022/08/25 12:47:41;;;;;;;0.77;0.70;;;32.20;46.60;;;;;;6274859;22;20007;-74
2022/08/25 12:50:39;;;;;;;1.15;0.80;;;32.10;46.50;;;;;;6274831;22;20057;-75
2022/08/25 12:53:32;;;;;;;0.70;0.70;;;32.00;46.30;;;;;;6274549;22;20019;-74
2022/08/25 12:56:07;;;;;;;0.75;0.70;;;32.00;46.40;;;;;;6275050;22;20008;-74
2022/08/25 12:59:00;;;;;;;0.50;0.50;;;31.90;46.40;;;;;;6248201;22;20016;-74
2022/08/25 13:02:06;;;;;;;0.63;0.63;;;31.80;46.50;;;;;;6274588;22;20003;-74
2022/08/25 13:04:55;;;;;;;0.50;0.50;;;31.70;46.60;;;;;;6256410;22;20007;-74
2022/08/25 13:07:52;;;;;;;0.52;0.52;;;31.60;46.80;;;;;;6274681;22;20007;-74
2022/08/25 13:10:26;;;;;;;0.57;0.57;;;31.50;46.90;;;;;;6252068;22;20052;-74
2022/08/25 13:13:20;;;;;;;1.40;0.77;;;31.50;46.90;;;;;;6274969;22;20026;-74
2022/08/25 13:15:58;;;;;;;1.02;0.70;;;31.50;46.90;;;;;;6274951;22;20004;-74
2022/08/25 13:18:28;;;;;;;0.70;0.70;;;31.60;46.60;;;;;;6274463;22;20019;-74
2022/08/25 13:21:07;;;;;;;1.02;0.90;;;31.70;46.20;;;;;;6274385;22;19996;-74
2022/08/25 13:23:36;;;;;;;0.90;0.90;;;31.80;45.80;;;;;;6245761;22;20329;-74